createdAt,value
2023-02-26T00:02:02.571Z,6.07
2023-02-26T00:04:33.031Z,5.80
2023-02-26T00:07:02.030Z,8.53
2023-02-26T00:09:31.249Z,5.30
2023-02-26T00:12:00.592Z,4.87
2023-02-26T00:14:29.684Z,3.97
2023-02-26T00:17:25.408Z,5.67
2023-02-26T00:19:58.864Z,7.47
2023-02-26T00:22:28.620Z,5.17
2023-02-26T00:24:57.576Z,4.27
2023-02-26T00:27:26.480Z,6.43
2023-02-26T00:29:55.971Z,4.57
2023-02-26T00:32:25.340Z,4.50
2023-02-26T00:34:54.933Z,5.00
2023-02-26T00:37:39.956Z,5.10
2023-02-26T00:40:19.017Z,4.80
2023-02-26T00:42:48.684Z,4.37
2023-02-26T00:45:18.376Z,4.50
2023-02-26T00:47:52.582Z,5.63
2023-02-26T00:50:23.526Z,4.97
2023-02-26T00:53:05.296Z,4.77
2023-02-26T00:55:34.237Z,5.27
2023-02-26T00:58:03.110Z,3.87
2023-02-26T01:00:32.346Z,3.77
2023-02-26T01:03:01.691Z,6.03
2023-02-26T01:05:31.358Z,4.50
2023-02-26T01:08:07.296Z,4.73
2023-02-26T01:10:36.906Z,5.07
2023-02-26T01:13:06.458Z,7.07
2023-02-26T01:15:35.881Z,5.10
2023-02-26T01:18:10.781Z,5.77
2023-02-26T01:20:46.588Z,7.10
2023-02-26T01:23:19.942Z,6.90
2023-02-26T01:25:52.777Z,6.40
2023-02-26T01:28:21.994Z,8.93
2023-02-26T01:30:52.145Z,13.80
2023-02-26T01:33:27.713Z,17.27
2023-02-26T01:36:00.165Z,13.90
2023-02-26T01:38:38.226Z,12.90
2023-02-26T01:41:28.428Z,9.23
2023-02-26T01:44:11.396Z,8.93
2023-02-26T01:46:55.897Z,6.80
2023-02-26T01:49:25.264Z,5.07
2023-02-26T01:51:57.954Z,4.80
2023-02-26T01:54:32.257Z,5.87
2023-02-26T01:57:06.283Z,6.97
2023-02-26T01:59:38.520Z,5.50
2023-02-26T02:02:11.849Z,8.83
2023-02-26T02:04:42.354Z,7.13
2023-02-26T02:07:11.476Z,5.33
2023-02-26T02:09:42.872Z,6.00
2023-02-26T02:12:28.128Z,7.53
2023-02-26T02:15:07.440Z,6.37
2023-02-26T02:17:48.313Z,5.70
2023-02-26T02:20:45.617Z,5.87
2023-02-26T02:23:19.433Z,6.40
2023-02-26T02:26:17.421Z,5.67
2023-02-26T02:29:04.780Z,6.93
2023-02-26T02:31:38.385Z,6.87
2023-02-26T02:34:14.663Z,6.83
2023-02-26T02:36:50.521Z,8.23
2023-02-26T02:39:24.752Z,5.97
2023-02-26T02:41:57.107Z,5.63
2023-02-26T02:44:32.243Z,6.07
2023-02-26T02:47:03.829Z,6.20
2023-02-26T02:49:38.406Z,6.33
2023-02-26T02:52:14.153Z,5.30
2023-02-26T02:54:46.553Z,6.10
2023-02-26T02:57:21.616Z,5.67
2023-02-26T02:59:53.285Z,4.87
2023-02-26T03:02:28.455Z,4.53
2023-02-26T03:04:57.532Z,4.83
2023-02-26T03:07:26.657Z,4.80
2023-02-26T03:09:56.208Z,3.80
2023-02-26T03:12:27.028Z,5.40
2023-02-26T03:14:55.885Z,4.43
2023-02-26T03:17:33.396Z,3.93
2023-02-26T03:20:14.251Z,4.20
2023-02-26T03:22:54.017Z,4.83
2023-02-26T03:25:28.284Z,3.80
2023-02-26T03:28:03.039Z,2.70
2023-02-26T03:30:39.267Z,3.77
2023-02-26T03:33:16.021Z,3.77
2023-02-26T03:35:51.306Z,3.60
2023-02-26T03:38:26.405Z,3.17
2023-02-26T03:41:01.295Z,4.20
2023-02-26T03:43:34.581Z,3.50
2023-02-26T03:46:08.374Z,3.17
2023-02-26T03:48:39.109Z,3.57
2023-02-26T03:51:11.845Z,3.43
2023-02-26T03:53:44.730Z,4.13
2023-02-26T03:56:19.513Z,3.10
2023-02-26T03:58:48.352Z,3.17
2023-02-26T04:01:21.836Z,4.23
2023-02-26T04:04:05.210Z,3.63
2023-02-26T04:06:35.469Z,3.50
2023-02-26T04:09:06.081Z,2.97
2023-02-26T04:11:35.965Z,3.07
2023-02-26T04:14:04.736Z,5.67
2023-02-26T04:16:33.581Z,4.07
2023-02-26T04:19:03.906Z,2.87
2023-02-26T04:21:32.645Z,3.33
2023-02-26T04:24:01.540Z,2.53
2023-02-26T04:26:30.221Z,3.47
2023-02-26T04:28:58.973Z,2.57
2023-02-26T04:31:27.836Z,2.77
2023-02-26T04:33:56.812Z,3.27
2023-02-26T04:36:28.388Z,3.17
2023-02-26T04:38:57.380Z,3.30
2023-02-26T04:41:26.326Z,3.13
2023-02-26T04:43:55.135Z,3.67
2023-02-26T04:46:24.675Z,3.00
2023-02-26T04:48:53.668Z,2.53
2023-02-26T04:51:22.708Z,3.10
2023-02-26T04:53:53.239Z,4.03
2023-02-26T04:56:22.105Z,3.70
2023-02-26T04:58:51.102Z,4.03
2023-02-26T05:01:20.038Z,2.77
2023-02-26T05:03:48.845Z,2.70
2023-02-26T05:06:17.618Z,2.97
2023-02-26T05:08:46.549Z,3.43
2023-02-26T05:11:16.842Z,2.50
2023-02-26T05:13:45.766Z,2.60
2023-02-26T05:16:14.704Z,6.33
2023-02-26T05:18:43.661Z,2.93
2023-02-26T05:21:12.790Z,2.70
2023-02-26T05:23:41.654Z,3.63
2023-02-26T05:26:10.376Z,2.13
2023-02-26T05:28:40.827Z,2.13
2023-02-26T05:31:09.793Z,2.93
2023-02-26T05:33:38.702Z,5.53
2023-02-26T05:36:08.443Z,2.70
2023-02-26T05:38:37.333Z,2.87
2023-02-26T05:41:06.700Z,3.03
2023-02-26T05:43:36.209Z,2.60
2023-02-26T05:46:08.200Z,2.80
2023-02-26T05:48:36.993Z,3.17
2023-02-26T05:51:06.035Z,3.00
2023-02-26T05:53:34.879Z,3.07
2023-02-26T05:56:03.612Z,3.53
2023-02-26T05:58:34.293Z,3.73
2023-02-26T06:01:03.351Z,7.43
2023-02-26T06:03:33.593Z,7.17
2023-02-26T06:06:02.404Z,14.30
2023-02-26T06:08:31.362Z,27.33
2023-02-26T06:11:00.200Z,9.97
2023-02-26T06:13:29.176Z,21.70
2023-02-26T06:15:58.124Z,7.57
2023-02-26T06:18:27.148Z,5.37
2023-02-26T06:20:57.444Z,3.70
2023-02-26T06:23:26.435Z,5.50
2023-02-26T06:25:57.166Z,6.40
2023-02-26T06:28:26.424Z,4.50
2023-02-26T06:30:55.554Z,4.40
2023-02-26T06:33:25.598Z,2.77
2023-02-26T06:35:54.580Z,2.60
2023-02-26T06:38:24.960Z,2.97
2023-02-26T06:40:53.994Z,3.03
2023-02-26T06:43:23.093Z,3.60
2023-02-26T06:45:52.238Z,4.00
2023-02-26T06:48:21.401Z,3.33
2023-02-26T06:50:50.297Z,2.87
2023-02-26T06:53:19.154Z,3.47
2023-02-26T06:55:51.813Z,2.80
2023-02-26T06:58:21.482Z,2.00
2023-02-26T07:00:50.351Z,3.60
2023-02-26T07:03:20.030Z,3.77
2023-02-26T07:05:48.995Z,2.90
2023-02-26T07:08:18.012Z,3.83
2023-02-26T07:10:49.544Z,4.60
2023-02-26T07:13:20.370Z,3.30
2023-02-26T07:15:49.306Z,5.20
2023-02-26T07:18:18.184Z,3.10
2023-02-26T07:20:47.083Z,3.93
2023-02-26T07:23:16.121Z,3.60
2023-02-26T07:25:44.968Z,3.37
2023-02-26T07:28:13.744Z,4.50
2023-02-26T07:30:44.121Z,5.30
2023-02-26T07:33:13.807Z,7.67
2023-02-26T07:35:42.934Z,6.03
2023-02-26T07:38:11.649Z,3.70
2023-02-26T07:40:40.458Z,4.77
2023-02-26T07:43:09.339Z,5.33
2023-02-26T07:45:38.183Z,5.73
2023-02-26T07:48:08.509Z,3.97
2023-02-26T07:50:37.266Z,4.93
2023-02-26T07:53:06.169Z,6.10
2023-02-26T07:55:34.976Z,6.30
2023-02-26T07:58:03.804Z,3.73
2023-02-26T08:00:33.357Z,5.40
2023-02-26T08:03:02.189Z,6.90
2023-02-26T08:05:32.551Z,4.90
2023-02-26T08:08:02.273Z,5.77
2023-02-26T08:10:31.251Z,6.90
2023-02-26T08:13:00.019Z,6.20
2023-02-26T08:15:29.048Z,3.77
2023-02-26T08:17:58.413Z,6.10
2023-02-26T08:20:27.225Z,4.20
2023-02-26T08:22:57.499Z,4.67
2023-02-26T08:25:26.286Z,4.70
2023-02-26T08:27:55.499Z,9.53
2023-02-26T08:30:24.366Z,8.33
2023-02-26T08:32:56.178Z,7.00
2023-02-26T08:35:26.137Z,6.67
2023-02-26T08:37:56.319Z,4.43
2023-02-26T08:40:25.309Z,4.77
2023-02-26T08:42:54.089Z,7.70
2023-02-26T08:45:23.151Z,4.50
2023-02-26T08:47:56.949Z,3.33
2023-02-26T08:50:26.860Z,4.20
2023-02-26T08:52:57.158Z,3.00
2023-02-26T08:55:26.003Z,4.93
2023-02-26T08:57:54.904Z,4.03
2023-02-26T09:00:24.331Z,4.03
2023-02-26T09:02:53.220Z,4.63
2023-02-26T09:05:22.303Z,5.33
2023-02-26T09:07:50.962Z,7.10
2023-02-26T09:10:21.586Z,3.80
2023-02-26T09:12:50.407Z,3.77
2023-02-26T09:15:20.304Z,3.50
2023-02-26T09:17:49.366Z,4.73
2023-02-26T09:20:18.838Z,5.07
2023-02-26T09:22:47.797Z,4.30
2023-02-26T09:25:16.796Z,3.63
2023-02-26T09:27:46.976Z,3.87
2023-02-26T09:30:16.353Z,5.97
2023-02-26T09:32:45.103Z,3.80
2023-02-26T09:35:13.855Z,3.63
2023-02-26T09:37:42.628Z,5.10
2023-02-26T09:40:22.662Z,4.30
2023-02-26T09:43:07.959Z,4.33
2023-02-26T09:45:40.830Z,4.00
2023-02-26T09:48:15.533Z,5.30
2023-02-26T09:50:48.477Z,4.73
2023-02-26T09:53:21.858Z,7.40
2023-02-26T09:55:51.783Z,7.83
2023-02-26T09:58:27.386Z,4.80
2023-02-26T10:01:05.658Z,4.37
2023-02-26T10:03:42.482Z,3.70
2023-02-26T10:06:27.857Z,6.23
2023-02-26T10:09:12.000Z,5.17
2023-02-26T10:11:49.455Z,6.83
2023-02-26T10:14:25.705Z,4.83
2023-02-26T10:16:58.577Z,5.90
2023-02-26T10:19:32.337Z,4.40
2023-02-26T10:22:07.908Z,3.20
2023-02-26T10:24:44.216Z,4.27
2023-02-26T10:27:19.788Z,6.40
2023-02-26T10:30:00.224Z,4.17
2023-02-26T10:32:36.613Z,5.43
2023-02-26T10:35:10.222Z,3.27
2023-02-26T10:37:49.690Z,3.30
2023-02-26T10:40:25.785Z,3.90
2023-02-26T10:43:00.128Z,3.43
2023-02-26T10:45:56.487Z,4.90
2023-02-26T10:48:44.562Z,4.40
2023-02-26T10:51:15.836Z,9.53
2023-02-26T10:53:48.632Z,4.60
2023-02-26T10:56:22.160Z,16.53
2023-02-26T10:58:53.042Z,15.93
2023-02-26T11:01:25.993Z,5.00
2023-02-26T11:04:02.881Z,5.53
2023-02-26T11:06:34.565Z,6.47
2023-02-26T11:09:07.263Z,6.20
2023-02-26T11:11:46.388Z,4.77
2023-02-26T11:14:17.574Z,4.03
2023-02-26T11:16:52.759Z,3.60
2023-02-26T11:19:29.869Z,3.37
2023-02-26T11:22:01.089Z,4.87
2023-02-26T11:24:35.202Z,4.03
2023-02-26T11:27:08.238Z,4.37
2023-02-26T11:29:40.731Z,5.00
2023-02-26T11:32:20.775Z,6.53
2023-02-26T11:34:54.378Z,5.10
2023-02-26T11:37:26.414Z,5.10
2023-02-26T11:40:01.054Z,4.80
2023-02-26T11:42:30.193Z,4.67
2023-02-26T11:45:00.426Z,6.20
2023-02-26T11:47:34.189Z,7.80
2023-02-26T11:50:05.873Z,4.07
2023-02-26T11:52:37.813Z,4.93
2023-02-26T11:55:20.004Z,4.40
2023-02-26T11:57:56.967Z,6.13
2023-02-26T12:00:31.409Z,5.97
2023-02-26T12:03:05.467Z,4.70
2023-02-26T12:05:34.565Z,4.67
2023-02-26T12:08:06.933Z,5.83
2023-02-26T12:10:40.658Z,7.57
2023-02-26T12:13:21.865Z,7.80
2023-02-26T12:15:59.108Z,6.70
2023-02-26T12:18:53.656Z,7.70
2023-02-26T12:21:44.814Z,8.60
2023-02-26T12:24:47.912Z,9.13
2023-02-26T12:27:31.439Z,8.20
2023-02-26T12:30:28.190Z,9.10
2023-02-26T12:33:13.623Z,5.97
2023-02-26T12:35:55.035Z,4.47
2023-02-26T12:38:31.866Z,7.60
2023-02-26T12:41:36.168Z,11.20
2023-02-26T12:44:18.865Z,5.17
2023-02-26T12:47:21.380Z,7.33
2023-02-26T12:50:08.975Z,4.93
2023-02-26T12:53:15.099Z,4.80
2023-02-26T12:56:00.993Z,5.07
2023-02-26T12:58:44.996Z,4.97
2023-02-26T13:01:36.805Z,5.70
2023-02-26T13:04:43.608Z,6.70
2023-02-26T13:07:30.328Z,4.70
2023-02-26T13:10:14.774Z,6.40
2023-02-26T13:12:55.183Z,4.30
2023-02-26T13:15:50.363Z,6.97
2023-02-26T13:18:28.918Z,4.17
2023-02-26T13:21:02.065Z,2.90
2023-02-26T13:23:37.758Z,3.60
2023-02-26T13:26:11.841Z,3.87
2023-02-26T13:28:45.549Z,6.20
2023-02-26T13:31:20.988Z,4.83
2023-02-26T13:33:54.015Z,5.10
2023-02-26T13:36:27.102Z,4.23
2023-02-26T13:39:12.031Z,6.27
2023-02-26T13:41:57.131Z,6.27
2023-02-26T13:44:39.764Z,5.70
2023-02-26T13:47:31.288Z,3.03
2023-02-26T13:50:14.939Z,2.77
2023-02-26T13:52:54.798Z,3.77
2023-02-26T13:55:45.605Z,3.00
2023-02-26T13:58:36.913Z,3.43
2023-02-26T14:01:18.199Z,3.63
2023-02-26T14:03:52.384Z,2.83
2023-02-26T14:06:39.910Z,7.80
2023-02-26T14:09:41.548Z,3.17
2023-02-26T14:12:34.302Z,2.90
2023-02-26T14:15:49.636Z,3.03
2023-02-26T14:18:32.208Z,3.20
2023-02-26T14:21:53.697Z,3.10
2023-02-26T14:24:37.830Z,5.77
2023-02-26T14:27:26.240Z,3.30
2023-02-26T14:30:08.967Z,4.27
2023-02-26T14:32:52.399Z,5.27
2023-02-26T14:35:26.624Z,4.63
2023-02-26T14:38:04.389Z,4.10
2023-02-26T14:40:49.048Z,6.83
2023-02-26T14:43:23.691Z,3.67
2023-02-26T14:46:07.285Z,5.67
2023-02-26T14:48:44.963Z,6.07
2023-02-26T14:51:28.302Z,6.10
2023-02-26T14:54:26.917Z,5.97
2023-02-26T14:57:06.744Z,4.27
2023-02-26T14:59:57.474Z,4.67
2023-02-26T15:02:37.851Z,4.83
2023-02-26T15:05:28.142Z,7.40
2023-02-26T15:08:20.005Z,5.93
2023-02-26T15:11:06.311Z,6.97
2023-02-26T15:13:55.459Z,4.70
2023-02-26T15:16:40.835Z,5.63
2023-02-26T15:19:24.975Z,5.50
2023-02-26T15:22:15.139Z,7.77
2023-02-26T15:24:47.725Z,6.70
2023-02-26T15:27:20.707Z,6.63
2023-02-26T15:29:58.434Z,6.00
2023-02-26T15:32:32.691Z,5.10
2023-02-26T15:35:09.400Z,3.80
2023-02-26T15:37:42.122Z,3.90
2023-02-26T15:40:17.329Z,4.17
2023-02-26T15:42:53.304Z,8.57
2023-02-26T15:45:26.586Z,5.57
2023-02-26T15:48:00.219Z,4.87
2023-02-26T15:50:34.480Z,6.17
2023-02-26T15:53:10.554Z,4.80
2023-02-26T15:55:47.700Z,12.50
2023-02-26T15:58:25.764Z,12.00
2023-02-26T16:00:59.056Z,14.03
2023-02-26T16:03:30.869Z,12.00
2023-02-26T16:06:03.864Z,11.17
2023-02-26T16:08:37.058Z,15.33
2023-02-26T16:11:08.520Z,11.30
2023-02-26T16:13:43.481Z,13.40
2023-02-26T16:16:18.685Z,9.00
2023-02-26T16:18:51.614Z,6.30
2023-02-26T16:21:30.831Z,7.70
2023-02-26T16:24:05.535Z,9.70
2023-02-26T16:26:41.702Z,8.60
2023-02-26T16:29:20.774Z,7.73
2023-02-26T16:31:57.841Z,9.93
2023-02-26T16:34:47.918Z,10.63
2023-02-26T16:37:28.136Z,10.53
2023-02-26T16:40:17.857Z,14.13
2023-02-26T16:42:55.491Z,7.90
2023-02-26T16:45:49.765Z,9.17
2023-02-26T16:48:27.375Z,8.70
2023-02-26T16:51:08.690Z,12.10
2023-02-26T16:53:46.171Z,10.17
2023-02-26T16:56:21.436Z,13.83
2023-02-26T16:59:02.077Z,18.23
2023-02-26T17:01:39.396Z,21.13
2023-02-26T17:04:13.976Z,18.00
2023-02-26T17:06:47.619Z,15.43
2023-02-26T17:10:01.637Z,15.20
2023-02-26T17:12:48.081Z,14.63
2023-02-26T17:15:22.274Z,14.73
2023-02-26T17:18:06.403Z,13.10
2023-02-26T17:20:45.542Z,13.30
2023-02-26T17:23:33.996Z,18.37
2023-02-26T17:26:09.810Z,18.13
2023-02-26T17:28:46.893Z,15.93
2023-02-26T17:31:38.929Z,20.57
2023-02-26T17:34:17.397Z,23.40
2023-02-26T17:36:48.012Z,30.93
2023-02-26T17:39:19.299Z,36.73
2023-02-26T17:41:52.224Z,36.00
2023-02-26T17:44:26.590Z,49.97
2023-02-26T17:47:27.446Z,43.87
2023-02-26T17:50:01.300Z,41.67
2023-02-26T17:52:32.221Z,36.17
2023-02-26T17:55:12.675Z,37.50
2023-02-26T17:57:44.836Z,29.00
2023-02-26T18:00:25.444Z,27.63
2023-02-26T18:02:56.341Z,29.23
2023-02-26T18:05:33.568Z,29.50
2023-02-26T18:08:21.502Z,28.80
2023-02-26T18:11:04.448Z,23.27
2023-02-26T18:13:44.123Z,25.07
2023-02-26T18:16:22.365Z,28.27
2023-02-26T18:18:53.211Z,28.97
2023-02-26T18:21:27.352Z,26.90
2023-02-26T18:24:02.079Z,20.63
2023-02-26T18:26:37.367Z,18.40
2023-02-26T18:29:08.576Z,22.57
2023-02-26T18:31:50.777Z,18.63
2023-02-26T18:34:31.385Z,16.10
2023-02-26T18:37:05.039Z,15.70
2023-02-26T18:39:41.981Z,14.70
2023-02-26T18:42:27.369Z,113.47
2023-02-26T18:44:59.602Z,19.40
2023-02-26T18:47:42.837Z,12.10
2023-02-26T18:50:18.303Z,14.37
2023-02-26T18:52:55.866Z,11.70
2023-02-26T18:55:27.750Z,11.60
2023-02-26T18:57:59.440Z,8.30
2023-02-26T19:00:35.383Z,11.90
2023-02-26T19:03:19.062Z,6.43
2023-02-26T19:05:57.214Z,10.10
2023-02-26T19:08:33.773Z,7.97
2023-02-26T19:11:07.686Z,7.70
2023-02-26T19:13:42.330Z,5.53
2023-02-26T19:16:13.461Z,7.17
2023-02-26T19:18:48.129Z,6.23
2023-02-26T19:21:21.272Z,5.47
2023-02-26T19:23:52.403Z,6.50
2023-02-26T19:26:25.250Z,5.10
2023-02-26T19:29:44.211Z,8.63
2023-02-26T19:32:19.602Z,5.60
2023-02-26T19:34:58.827Z,11.23
2023-02-26T19:37:29.226Z,8.33
2023-02-26T19:40:01.637Z,10.87
2023-02-26T19:42:32.217Z,7.10
2023-02-26T19:45:11.920Z,14.70
2023-02-26T19:47:44.054Z,20.67
2023-02-26T19:50:20.587Z,32.07
2023-02-26T19:52:58.272Z,33.90
2023-02-26T19:55:31.913Z,23.37
2023-02-26T19:58:07.685Z,24.40
2023-02-26T20:00:46.029Z,20.13
2023-02-26T20:03:16.368Z,22.03
2023-02-26T20:05:50.148Z,19.63
2023-02-26T20:08:24.264Z,20.73
2023-02-26T20:10:57.107Z,20.77
2023-02-26T20:13:31.379Z,20.40
2023-02-26T20:16:02.944Z,23.03
2023-02-26T20:18:34.293Z,20.80
2023-02-26T20:21:09.263Z,23.57
2023-02-26T20:23:43.660Z,20.63
2023-02-26T20:26:19.989Z,18.70
2023-02-26T20:28:53.930Z,15.30
2023-02-26T20:31:28.875Z,28.50
2023-02-26T20:34:09.092Z,21.08
2023-02-26T20:36:46.893Z,17.17
2023-02-26T20:39:16.845Z,23.50
2023-02-26T20:41:46.866Z,21.57
2023-02-26T20:44:17.306Z,22.57
2023-02-26T20:46:48.537Z,20.70
2023-02-26T20:49:19.785Z,18.00
2023-02-26T20:51:52.626Z,21.10
2023-02-26T20:54:24.092Z,19.20
2023-02-26T20:56:54.481Z,20.33
2023-02-26T20:59:25.826Z,18.70
2023-02-26T21:01:57.984Z,16.83
2023-02-26T21:04:30.618Z,21.43
2023-02-26T21:07:14.365Z,16.77
2023-02-26T21:09:48.751Z,16.63
2023-02-26T21:12:19.573Z,16.50
2023-02-26T21:14:53.504Z,17.70
2023-02-26T21:17:33.197Z,23.67
2023-02-26T21:20:07.123Z,17.00
2023-02-26T21:22:40.811Z,20.10
2023-02-26T21:25:11.897Z,21.73
2023-02-26T21:27:42.826Z,30.23
2023-02-26T21:30:15.725Z,29.53
2023-02-26T21:32:45.487Z,24.23
2023-02-26T21:35:16.594Z,30.00
2023-02-26T21:37:48.275Z,24.23
2023-02-26T21:40:18.311Z,24.50
2023-02-26T21:42:47.916Z,30.57
2023-02-26T21:45:23.144Z,25.47
2023-02-26T21:47:52.656Z,23.67
2023-02-26T21:50:22.581Z,31.00
2023-02-26T21:52:53.062Z,31.30
2023-02-26T21:55:22.154Z,22.57
2023-02-26T21:57:51.160Z,19.83
2023-02-26T22:00:21.518Z,29.03
2023-02-26T22:02:50.356Z,26.07
2023-02-26T22:05:19.317Z,20.97
2023-02-26T22:07:48.180Z,27.23
2023-02-26T22:10:18.811Z,33.87
2023-02-26T22:12:47.727Z,28.37
2023-02-26T22:15:16.949Z,30.57
2023-02-26T22:17:45.827Z,26.57
2023-02-26T22:20:14.993Z,23.50
2023-02-26T22:22:44.065Z,29.90
2023-02-26T22:25:14.431Z,29.17
2023-02-26T22:27:44.736Z,29.33
2023-02-26T22:30:14.507Z,43.53
2023-02-26T22:32:44.317Z,30.80
2023-02-26T22:35:14.237Z,31.97
2023-02-26T22:37:43.585Z,30.20
2023-02-26T22:40:14.290Z,28.00
2023-02-26T22:42:47.727Z,22.53
2023-02-26T22:45:19.184Z,23.33
2023-02-26T22:47:50.725Z,23.67
2023-02-26T22:50:20.664Z,24.90
2023-02-26T22:52:49.583Z,28.13
2023-02-26T22:55:18.847Z,29.97
2023-02-26T22:57:49.259Z,25.30
2023-02-26T23:00:20.589Z,21.10
2023-02-26T23:02:51.492Z,20.87
2023-02-26T23:05:21.175Z,23.27
2023-02-26T23:07:50.215Z,26.33
2023-02-26T23:10:21.720Z,18.60
2023-02-26T23:12:52.094Z,15.60
2023-02-26T23:15:21.117Z,20.93
2023-02-26T23:17:49.984Z,21.23
2023-02-26T23:20:19.067Z,19.33
2023-02-26T23:22:48.030Z,20.83
2023-02-26T23:25:16.916Z,23.60
2023-02-26T23:27:46.120Z,22.73
2023-02-26T23:30:16.855Z,16.27
2023-02-26T23:32:46.558Z,18.50
2023-02-26T23:35:15.539Z,22.00
2023-02-26T23:37:44.532Z,19.77
2023-02-26T23:40:15.181Z,19.60
2023-02-26T23:42:44.076Z,13.30
2023-02-26T23:45:13.510Z,13.60
2023-02-26T23:47:44.102Z,18.30
2023-02-26T23:50:13.744Z,21.30
2023-02-26T23:52:42.692Z,15.93
2023-02-26T23:55:12.260Z,13.43
2023-02-26T23:57:41.188Z,15.60
